Newton Center, Massachusetts
Current Conditions -  °F | °C
As of 9:53 PM on Wednesday 26 Nov 2014 (Local Time) from KOWD Reporting Station
Light Snow Light Snow  
Wind Chill: 25°   Ceiling: 700
Heat Index: 34°   Visibility: 3mi
Dew Point: 32°   Wind: 12mph
Humidity: 92%   Direction: 350°N
Pressure: 29.68"   Gusts: 25mph
Location:  42.32°N, 71.19°W
Report Text: KOWD 270253Z 35010G22KT 3SM -SN BR OVC007 01/00 A2968 RMK AO2 RAB06E32SNE06B32 CIG 006V013 SLP052 P0006 60017 T00110000 56016 $
Loading
Personal Weather Stations






























Interactive Weather Map New forecast layout! Learn more

10-Day Weather Forecast

Advertisements
Track Severe Weather on mobile